sensor_id;sensor_type;location;lat;lon;timestamp;P1;durP1;ratioP1;P2;durP2;ratioP2
13603;SDS011;24578;48.264;11.436;2023-02-28T00:00:44;6.64;;;6.64;;
13603;SDS011;24578;48.264;11.436;2023-02-28T00:03:44;6.87;;;6.87;;
13603;SDS011;24578;48.264;11.436;2023-02-28T00:06:45;6.88;;;6.88;;
13603;SDS011;24578;48.264;11.436;2023-02-28T00:09:46;7.02;;;7.01;;
13603;SDS011;24578;48.264;11.436;2023-02-28T00:12:47;6.98;;;6.98;;
13603;SDS011;24578;48.264;11.436;2023-02-28T00:15:57;7.18;;;7.18;;
13603;SDS011;24578;48.264;11.436;2023-02-28T00:18:59;7.53;;;7.53;;
13603;SDS011;24578;48.264;11.436;2023-02-28T00:22:00;7.25;;;7.23;;
13603;SDS011;24578;48.264;11.436;2023-02-28T00:25:00;7.64;;;7.64;;
13603;SDS011;24578;48.264;11.436;2023-02-28T00:28:01;7.77;;;7.75;;
13603;SDS011;24578;48.264;11.436;2023-02-28T00:31:02;7.93;;;7.89;;
13603;SDS011;24578;48.264;11.436;2023-02-28T00:34:02;7.33;;;7.33;;
13603;SDS011;24578;48.264;11.436;2023-02-28T00:37:04;7.56;;;7.54;;
13603;SDS011;24578;48.264;11.436;2023-02-28T00:40:06;7.51;;;7.51;;
13603;SDS011;24578;48.264;11.436;2023-02-28T00:43:07;7.90;;;7.90;;
13603;SDS011;24578;48.264;11.436;2023-02-28T00:46:08;7.84;;;7.84;;
13603;SDS011;24578;48.264;11.436;2023-02-28T00:49:09;7.50;;;7.49;;
13603;SDS011;24578;48.264;11.436;2023-02-28T00:52:09;7.54;;;7.53;;
13603;SDS011;24578;48.264;11.436;2023-02-28T00:55:10;7.63;;;7.62;;
13603;SDS011;24578;48.264;11.436;2023-02-28T00:58:10;7.95;;;7.90;;
13603;SDS011;24578;48.264;11.436;2023-02-28T01:01:11;7.99;;;7.94;;
13603;SDS011;24578;48.264;11.436;2023-02-28T01:04:12;7.82;;;7.82;;
13603;SDS011;24578;48.264;11.436;2023-02-28T01:07:13;8.12;;;8.11;;
13603;SDS011;24578;48.264;11.436;2023-02-28T01:10:14;7.71;;;7.62;;
13603;SDS011;24578;48.264;11.436;2023-02-28T01:13:15;7.83;;;7.82;;
13603;SDS011;24578;48.264;11.436;2023-02-28T01:16:17;8.02;;;8.01;;
13603;SDS011;24578;48.264;11.436;2023-02-28T01:19:18;7.99;;;7.95;;
13603;SDS011;24578;48.264;11.436;2023-02-28T01:22:18;7.84;;;7.82;;
13603;SDS011;24578;48.264;11.436;2023-02-28T01:25:19;7.69;;;7.67;;
13603;SDS011;24578;48.264;11.436;2023-02-28T01:28:19;8.08;;;8.06;;
13603;SDS011;24578;48.264;11.436;2023-02-28T01:31:21;8.03;;;8.02;;
13603;SDS011;24578;48.264;11.436;2023-02-28T01:34:23;8.22;;;8.22;;
13603;SDS011;24578;48.264;11.436;2023-02-28T01:37:23;8.35;;;8.35;;
13603;SDS011;24578;48.264;11.436;2023-02-28T01:40:24;7.96;;;7.96;;
13603;SDS011;24578;48.264;11.436;2023-02-28T01:43:26;8.12;;;8.12;;
13603;SDS011;24578;48.264;11.436;2023-02-28T01:46:30;8.34;;;8.34;;
13603;SDS011;24578;48.264;11.436;2023-02-28T01:49:31;7.93;;;7.93;;
13603;SDS011;24578;48.264;11.436;2023-02-28T01:52:32;8.05;;;8.05;;
13603;SDS011;24578;48.264;11.436;2023-02-28T01:55:34;8.03;;;7.99;;
13603;SDS011;24578;48.264;11.436;2023-02-28T01:58:36;7.88;;;7.80;;
13603;SDS011;24578;48.264;11.436;2023-02-28T02:01:37;8.18;;;8.10;;
13603;SDS011;24578;48.264;11.436;2023-02-28T02:04:42;8.09;;;8.09;;
13603;SDS011;24578;48.264;11.436;2023-02-28T02:07:56;7.97;;;7.97;;
13603;SDS011;24578;48.264;11.436;2023-02-28T02:11:03;8.27;;;8.23;;
13603;SDS011;24578;48.264;11.436;2023-02-28T02:20:41;8.38;;;8.34;;
13603;SDS011;24578;48.264;11.436;2023-02-28T02:34:48;8.69;;;8.59;;
13603;SDS011;24578;48.264;11.436;2023-02-28T02:41:51;8.96;;;8.96;;
13603;SDS011;24578;48.264;11.436;2023-02-28T02:45:05;8.70;;;8.70;;
13603;SDS011;24578;48.264;11.436;2023-02-28T02:48:18;9.30;;;9.30;;
13603;SDS011;24578;48.264;11.436;2023-02-28T02:51:25;8.83;;;8.83;;
13603;SDS011;24578;48.264;11.436;2023-02-28T02:54:32;9.27;;;9.26;;
13603;SDS011;24578;48.264;11.436;2023-02-28T02:57:52;8.86;;;8.86;;
13603;SDS011;24578;48.264;11.436;2023-02-28T03:00:59;9.33;;;9.31;;
13603;SDS011;24578;48.264;11.436;2023-02-28T03:04:08;9.47;;;9.42;;
13603;SDS011;24578;48.264;11.436;2023-02-28T03:07:14;9.50;;;9.41;;
13603;SDS011;24578;48.264;11.436;2023-02-28T03:10:32;10.11;;;9.90;;
13603;SDS011;24578;48.264;11.436;2023-02-28T03:13:52;10.06;;;10.02;;
13603;SDS011;24578;48.264;11.436;2023-02-28T03:17:14;10.29;;;10.28;;
13603;SDS011;24578;48.264;11.436;2023-02-28T03:20:49;10.52;;;10.40;;
13603;SDS011;24578;48.264;11.436;2023-02-28T03:24:06;10.50;;;10.41;;
13603;SDS011;24578;48.264;11.436;2023-02-28T03:27:23;16.38;;;15.98;;
13603;SDS011;24578;48.264;11.436;2023-02-28T03:30:32;22.97;;;22.39;;
13603;SDS011;24578;48.264;11.436;2023-02-28T03:33:46;10.99;;;10.75;;
13603;SDS011;24578;48.264;11.436;2023-02-28T03:37:01;10.57;;;10.56;;
13603;SDS011;24578;48.264;11.436;2023-02-28T03:40:10;11.21;;;11.02;;
13603;SDS011;24578;48.264;11.436;2023-02-28T03:43:18;11.64;;;11.42;;
13603;SDS011;24578;48.264;11.436;2023-02-28T03:46:26;10.89;;;10.78;;
13603;SDS011;24578;48.264;11.436;2023-02-28T03:49:37;10.97;;;10.86;;
13603;SDS011;24578;48.264;11.436;2023-02-28T03:53:29;11.51;;;11.45;;
13603;SDS011;24578;48.264;11.436;2023-02-28T03:56:19;12.18;;;12.08;;
13603;SDS011;24578;48.264;11.436;2023-02-28T03:59:28;11.61;;;11.61;;
13603;SDS011;24578;48.264;11.436;2023-02-28T04:02:39;11.70;;;11.67;;
13603;SDS011;24578;48.264;11.436;2023-02-28T04:05:48;11.72;;;11.51;;
13603;SDS011;24578;48.264;11.436;2023-02-28T04:08:53;12.58;;;12.37;;
13603;SDS011;24578;48.264;11.436;2023-02-28T04:11:54;12.39;;;12.33;;
13603;SDS011;24578;48.264;11.436;2023-02-28T04:14:56;12.63;;;12.63;;
13603;SDS011;24578;48.264;11.436;2023-02-28T04:17:57;12.05;;;12.02;;
13603;SDS011;24578;48.264;11.436;2023-02-28T04:20:59;12.99;;;12.73;;
13603;SDS011;24578;48.264;11.436;2023-02-28T04:24:01;13.09;;;12.78;;
13603;SDS011;24578;48.264;11.436;2023-02-28T04:27:02;13.14;;;12.97;;
13603;SDS011;24578;48.264;11.436;2023-02-28T04:30:03;33.11;;;32.41;;
13603;SDS011;24578;48.264;11.436;2023-02-28T04:33:04;21.76;;;21.27;;
13603;SDS011;24578;48.264;11.436;2023-02-28T04:36:06;14.35;;;14.07;;
13603;SDS011;24578;48.264;11.436;2023-02-28T04:39:08;13.77;;;13.64;;
13603;SDS011;24578;48.264;11.436;2023-02-28T04:42:10;13.90;;;13.84;;
13603;SDS011;24578;48.264;11.436;2023-02-28T04:45:11;13.84;;;13.77;;
13603;SDS011;24578;48.264;11.436;2023-02-28T04:48:12;14.78;;;14.50;;
13603;SDS011;24578;48.264;11.436;2023-02-28T04:51:13;14.67;;;14.52;;
13603;SDS011;24578;48.264;11.436;2023-02-28T04:54:15;14.17;;;14.16;;
13603;SDS011;24578;48.264;11.436;2023-02-28T04:57:16;14.54;;;14.52;;
13603;SDS011;24578;48.264;11.436;2023-02-28T05:00:16;20.74;;;20.28;;
13603;SDS011;24578;48.264;11.436;2023-02-28T05:03:17;20.26;;;19.84;;
13603;SDS011;24578;48.264;11.436;2023-02-28T05:06:19;15.30;;;15.08;;
13603;SDS011;24578;48.264;11.436;2023-02-28T05:09:21;14.86;;;14.62;;
13603;SDS011;24578;48.264;11.436;2023-02-28T05:12:21;15.62;;;15.34;;
13603;SDS011;24578;48.264;11.436;2023-02-28T05:15:22;16.07;;;15.70;;
13603;SDS011;24578;48.264;11.436;2023-02-28T05:18:22;15.61;;;15.20;;
13603;SDS011;24578;48.264;11.436;2023-02-28T05:21:28;15.57;;;15.37;;
13603;SDS011;24578;48.264;11.436;2023-02-28T05:24:34;15.94;;;15.65;;
13603;SDS011;24578;48.264;11.436;2023-02-28T05:27:34;16.10;;;15.83;;
13603;SDS011;24578;48.264;11.436;2023-02-28T05:30:35;16.02;;;15.69;;
13603;SDS011;24578;48.264;11.436;2023-02-28T05:33:35;16.43;;;16.21;;
13603;SDS011;24578;48.264;11.436;2023-02-28T05:36:36;17.33;;;17.25;;
13603;SDS011;24578;48.264;11.436;2023-02-28T05:39:37;17.49;;;17.00;;
13603;SDS011;24578;48.264;11.436;2023-02-28T05:42:38;17.40;;;16.96;;
13603;SDS011;24578;48.264;11.436;2023-02-28T05:45:39;17.06;;;16.82;;
13603;SDS011;24578;48.264;11.436;2023-02-28T05:48:40;17.01;;;16.84;;
13603;SDS011;24578;48.264;11.436;2023-02-28T05:51:42;20.41;;;20.04;;
13603;SDS011;24578;48.264;11.436;2023-02-28T05:54:42;17.01;;;16.90;;
13603;SDS011;24578;48.264;11.436;2023-02-28T05:57:43;16.85;;;16.75;;
13603;SDS011;24578;48.264;11.436;2023-02-28T06:00:44;16.71;;;16.66;;
13603;SDS011;24578;48.264;11.436;2023-02-28T06:03:44;17.24;;;17.00;;
13603;SDS011;24578;48.264;11.436;2023-02-28T06:06:45;17.30;;;17.15;;
13603;SDS011;24578;48.264;11.436;2023-02-28T06:09:49;17.64;;;17.29;;
13603;SDS011;24578;48.264;11.436;2023-02-28T06:12:50;17.83;;;17.62;;
13603;SDS011;24578;48.264;11.436;2023-02-28T06:15:50;17.78;;;17.75;;
13603;SDS011;24578;48.264;11.436;2023-02-28T06:18:51;17.80;;;17.61;;
13603;SDS011;24578;48.264;11.436;2023-02-28T06:21:53;18.35;;;17.95;;
13603;SDS011;24578;48.264;11.436;2023-02-28T06:24:54;18.00;;;17.83;;
13603;SDS011;24578;48.264;11.436;2023-02-28T06:27:56;18.09;;;17.62;;
13603;SDS011;24578;48.264;11.436;2023-02-28T06:30:56;17.95;;;17.80;;
13603;SDS011;24578;48.264;11.436;2023-02-28T06:33:57;20.80;;;20.51;;
13603;SDS011;24578;48.264;11.436;2023-02-28T06:36:57;31.87;;;31.20;;
13603;SDS011;24578;48.264;11.436;2023-02-28T06:40:02;19.28;;;18.62;;
13603;SDS011;24578;48.264;11.436;2023-02-28T06:43:03;19.63;;;19.07;;
13603;SDS011;24578;48.264;11.436;2023-02-28T06:46:04;24.15;;;23.68;;
13603;SDS011;24578;48.264;11.436;2023-02-28T06:49:07;18.05;;;17.97;;
13603;SDS011;24578;48.264;11.436;2023-02-28T06:52:09;18.48;;;18.39;;
13603;SDS011;24578;48.264;11.436;2023-02-28T06:55:10;19.49;;;19.01;;
13603;SDS011;24578;48.264;11.436;2023-02-28T06:58:10;19.61;;;19.19;;
13603;SDS011;24578;48.264;11.436;2023-02-28T07:01:20;19.61;;;19.42;;
13603;SDS011;24578;48.264;11.436;2023-02-28T07:04:23;54.82;;;53.21;;
13603;SDS011;24578;48.264;11.436;2023-02-28T07:07:24;22.43;;;22.08;;
13603;SDS011;24578;48.264;11.436;2023-02-28T07:10:24;19.87;;;19.47;;
13603;SDS011;24578;48.264;11.436;2023-02-28T07:13:25;19.85;;;19.28;;
13603;SDS011;24578;48.264;11.436;2023-02-28T07:16:26;20.39;;;20.12;;
13603;SDS011;24578;48.264;11.436;2023-02-28T07:19:26;19.91;;;19.79;;
13603;SDS011;24578;48.264;11.436;2023-02-28T07:22:27;20.00;;;19.71;;
13603;SDS011;24578;48.264;11.436;2023-02-28T07:25:28;20.26;;;20.08;;
13603;SDS011;24578;48.264;11.436;2023-02-28T07:28:29;20.76;;;20.36;;
13603;SDS011;24578;48.264;11.436;2023-02-28T07:31:30;21.24;;;20.63;;
13603;SDS011;24578;48.264;11.436;2023-02-28T07:34:31;21.53;;;20.95;;
13603;SDS011;24578;48.264;11.436;2023-02-28T07:37:32;20.64;;;20.52;;
13603;SDS011;24578;48.264;11.436;2023-02-28T07:40:36;34.94;;;33.84;;
13603;SDS011;24578;48.264;11.436;2023-02-28T07:43:37;34.62;;;33.42;;
13603;SDS011;24578;48.264;11.436;2023-02-28T07:46:37;21.32;;;20.81;;
13603;SDS011;24578;48.264;11.436;2023-02-28T07:49:38;20.81;;;20.44;;
13603;SDS011;24578;48.264;11.436;2023-02-28T07:52:39;22.18;;;21.47;;
13603;SDS011;24578;48.264;11.436;2023-02-28T07:55:40;22.38;;;21.93;;
13603;SDS011;24578;48.264;11.436;2023-02-28T07:58:41;24.86;;;24.07;;
13603;SDS011;24578;48.264;11.436;2023-02-28T08:01:41;23.33;;;22.90;;
13603;SDS011;24578;48.264;11.436;2023-02-28T08:04:44;22.28;;;21.73;;
13603;SDS011;24578;48.264;11.436;2023-02-28T08:07:45;22.04;;;21.37;;
13603;SDS011;24578;48.264;11.436;2023-02-28T08:10:47;22.06;;;21.82;;
13603;SDS011;24578;48.264;11.436;2023-02-28T08:13:48;22.40;;;21.95;;
13603;SDS011;24578;48.264;11.436;2023-02-28T08:16:48;23.24;;;22.91;;
13603;SDS011;24578;48.264;11.436;2023-02-28T08:19:49;22.36;;;22.32;;
13603;SDS011;24578;48.264;11.436;2023-02-28T08:22:50;23.52;;;23.45;;
13603;SDS011;24578;48.264;11.436;2023-02-28T08:25:54;23.05;;;22.95;;
13603;SDS011;24578;48.264;11.436;2023-02-28T08:28:55;22.21;;;22.01;;
13603;SDS011;24578;48.264;11.436;2023-02-28T08:31:56;23.42;;;22.66;;
13603;SDS011;24578;48.264;11.436;2023-02-28T08:34:57;23.26;;;23.05;;
13603;SDS011;24578;48.264;11.436;2023-02-28T08:37:57;23.46;;;23.17;;
13603;SDS011;24578;48.264;11.436;2023-02-28T08:41:05;23.80;;;23.67;;
13603;SDS011;24578;48.264;11.436;2023-02-28T08:44:08;24.19;;;23.84;;
13603;SDS011;24578;48.264;11.436;2023-02-28T08:47:09;23.64;;;23.42;;
13603;SDS011;24578;48.264;11.436;2023-02-28T08:50:10;22.78;;;22.69;;
13603;SDS011;24578;48.264;11.436;2023-02-28T08:53:10;27.13;;;26.71;;
13603;SDS011;24578;48.264;11.436;2023-02-28T08:56:12;35.13;;;34.02;;
13603;SDS011;24578;48.264;11.436;2023-02-28T08:59:13;23.11;;;22.56;;
13603;SDS011;24578;48.264;11.436;2023-02-28T09:02:14;24.44;;;24.01;;
13603;SDS011;24578;48.264;11.436;2023-02-28T09:05:15;23.90;;;23.21;;
13603;SDS011;24578;48.264;11.436;2023-02-28T09:08:15;23.31;;;22.98;;
13603;SDS011;24578;48.264;11.436;2023-02-28T09:11:16;23.14;;;22.44;;
13603;SDS011;24578;48.264;11.436;2023-02-28T09:14:18;22.02;;;21.76;;
13603;SDS011;24578;48.264;11.436;2023-02-28T09:17:20;23.26;;;22.78;;
13603;SDS011;24578;48.264;11.436;2023-02-28T09:20:20;23.52;;;23.08;;
13603;SDS011;24578;48.264;11.436;2023-02-28T09:23:21;22.57;;;22.32;;
13603;SDS011;24578;48.264;11.436;2023-02-28T09:26:23;22.48;;;22.30;;
13603;SDS011;24578;48.264;11.436;2023-02-28T09:29:25;23.12;;;22.59;;
13603;SDS011;24578;48.264;11.436;2023-02-28T09:32:26;23.48;;;22.79;;
13603;SDS011;24578;48.264;11.436;2023-02-28T09:35:27;23.19;;;22.78;;
13603;SDS011;24578;48.264;11.436;2023-02-28T09:38:28;22.80;;;22.65;;
13603;SDS011;24578;48.264;11.436;2023-02-28T09:41:37;23.52;;;23.17;;
13603;SDS011;24578;48.264;11.436;2023-02-28T09:44:47;23.13;;;23.06;;
13603;SDS011;24578;48.264;11.436;2023-02-28T09:47:51;23.17;;;22.68;;
13603;SDS011;24578;48.264;11.436;2023-02-28T09:51:02;23.32;;;23.09;;
13603;SDS011;24578;48.264;11.436;2023-02-28T09:54:05;22.91;;;22.70;;
13603;SDS011;24578;48.264;11.436;2023-02-28T09:57:18;23.30;;;23.19;;
13603;SDS011;24578;48.264;11.436;2023-02-28T10:00:33;24.29;;;23.73;;
13603;SDS011;24578;48.264;11.436;2023-02-28T10:03:39;24.87;;;24.16;;
13603;SDS011;24578;48.264;11.436;2023-02-28T10:06:49;23.77;;;23.58;;
13603;SDS011;24578;48.264;11.436;2023-02-28T10:09:52;23.50;;;23.24;;
13603;SDS011;24578;48.264;11.436;2023-02-28T10:12:59;23.72;;;23.54;;
13603;SDS011;24578;48.264;11.436;2023-02-28T10:16:06;22.93;;;22.71;;
13603;SDS011;24578;48.264;11.436;2023-02-28T10:26:13;23.16;;;22.75;;
13603;SDS011;24578;48.264;11.436;2023-02-28T10:29:16;22.70;;;22.54;;
13603;SDS011;24578;48.264;11.436;2023-02-28T10:32:17;23.02;;;22.81;;
13603;SDS011;24578;48.264;11.436;2023-02-28T10:35:24;22.87;;;22.83;;
13603;SDS011;24578;48.264;11.436;2023-02-28T10:38:37;22.44;;;22.19;;
13603;SDS011;24578;48.264;11.436;2023-02-28T10:41:42;21.07;;;21.02;;
13603;SDS011;24578;48.264;11.436;2023-02-28T10:44:43;20.51;;;20.50;;
13603;SDS011;24578;48.264;11.436;2023-02-28T10:47:51;33.56;;;33.26;;
13603;SDS011;24578;48.264;11.436;2023-02-28T10:50:54;34.22;;;33.43;;
13603;SDS011;24578;48.264;11.436;2023-02-28T10:53:57;20.60;;;20.48;;
13603;SDS011;24578;48.264;11.436;2023-02-28T10:57:05;20.53;;;20.49;;
13603;SDS011;24578;48.264;11.436;2023-02-28T11:00:19;19.85;;;19.84;;
13603;SDS011;24578;48.264;11.436;2023-02-28T11:03:32;21.41;;;20.96;;
13603;SDS011;24578;48.264;11.436;2023-02-28T11:06:35;20.83;;;20.70;;
13603;SDS011;24578;48.264;11.436;2023-02-28T11:09:38;20.02;;;20.02;;
13603;SDS011;24578;48.264;11.436;2023-02-28T11:12:40;20.19;;;20.19;;
13603;SDS011;24578;48.264;11.436;2023-02-28T11:15:43;20.54;;;20.39;;
13603;SDS011;24578;48.264;11.436;2023-02-28T11:18:53;19.77;;;19.70;;
13603;SDS011;24578;48.264;11.436;2023-02-28T11:21:57;19.35;;;19.29;;
13603;SDS011;24578;48.264;11.436;2023-02-28T11:25:02;19.72;;;19.70;;
13603;SDS011;24578;48.264;11.436;2023-02-28T11:28:30;19.19;;;19.06;;
13603;SDS011;24578;48.264;11.436;2023-02-28T11:31:33;34.10;;;33.90;;
13603;SDS011;24578;48.264;11.436;2023-02-28T11:34:34;23.40;;;23.38;;
13603;SDS011;24578;48.264;11.436;2023-02-28T11:37:37;19.50;;;19.50;;
13603;SDS011;24578;48.264;11.436;2023-02-28T11:44:05;19.52;;;19.41;;
13603;SDS011;24578;48.264;11.436;2023-02-28T11:54:35;19.47;;;19.47;;
13603;SDS011;24578;48.264;11.436;2023-02-28T12:11:23;18.89;;;18.89;;
13603;SDS011;24578;48.264;11.436;2023-02-28T12:17:51;19.21;;;19.13;;
13603;SDS011;24578;48.264;11.436;2023-02-28T12:21:11;18.59;;;18.58;;
13603;SDS011;24578;48.264;11.436;2023-02-28T12:27:37;18.40;;;18.38;;
13603;SDS011;24578;48.264;11.436;2023-02-28T12:30:46;18.44;;;18.38;;
13603;SDS011;24578;48.264;11.436;2023-02-28T12:34:10;18.60;;;18.58;;
13603;SDS011;24578;48.264;11.436;2023-02-28T12:37:28;18.39;;;18.35;;
13603;SDS011;24578;48.264;11.436;2023-02-28T12:44:00;18.32;;;18.29;;
13603;SDS011;24578;48.264;11.436;2023-02-28T12:47:09;18.45;;;18.45;;
13603;SDS011;24578;48.264;11.436;2023-02-28T12:50:15;21.57;;;21.50;;
13603;SDS011;24578;48.264;11.436;2023-02-28T12:53:18;25.90;;;25.56;;
13603;SDS011;24578;48.264;11.436;2023-02-28T12:59:55;19.06;;;18.96;;
13603;SDS011;24578;48.264;11.436;2023-02-28T13:03:17;18.58;;;18.55;;
13603;SDS011;24578;48.264;11.436;2023-02-28T13:06:39;18.56;;;18.55;;
13603;SDS011;24578;48.264;11.436;2023-02-28T13:10:01;18.72;;;18.72;;
13603;SDS011;24578;48.264;11.436;2023-02-28T13:13:11;18.54;;;18.54;;
13603;SDS011;24578;48.264;11.436;2023-02-28T13:16:16;18.27;;;18.26;;
13603;SDS011;24578;48.264;11.436;2023-02-28T13:19:17;18.65;;;18.59;;
13603;SDS011;24578;48.264;11.436;2023-02-28T13:22:40;18.34;;;18.32;;
13603;SDS011;24578;48.264;11.436;2023-02-28T13:32:19;19.11;;;19.10;;
13603;SDS011;24578;48.264;11.436;2023-02-28T13:35:37;19.01;;;18.99;;
13603;SDS011;24578;48.264;11.436;2023-02-28T13:38:54;19.48;;;19.36;;
13603;SDS011;24578;48.264;11.436;2023-02-28T13:42:46;19.47;;;19.42;;
13603;SDS011;24578;48.264;11.436;2023-02-28T13:46:03;19.27;;;19.08;;
13603;SDS011;24578;48.264;11.436;2023-02-28T13:52:28;18.12;;;18.12;;
13603;SDS011;24578;48.264;11.436;2023-02-28T13:55:43;18.06;;;18.06;;
13603;SDS011;24578;48.264;11.436;2023-02-28T13:58:50;18.23;;;18.23;;
13603;SDS011;24578;48.264;11.436;2023-02-28T14:05:33;18.89;;;18.84;;
13603;SDS011;24578;48.264;11.436;2023-02-28T14:08:35;18.28;;;18.28;;
13603;SDS011;24578;48.264;11.436;2023-02-28T14:11:37;18.60;;;18.49;;
13603;SDS011;24578;48.264;11.436;2023-02-28T14:17:40;17.91;;;17.83;;
13603;SDS011;24578;48.264;11.436;2023-02-28T14:20:41;19.07;;;18.90;;
13603;SDS011;24578;48.264;11.436;2023-02-28T14:23:49;19.13;;;19.01;;
13603;SDS011;24578;48.264;11.436;2023-02-28T14:30:43;20.50;;;20.50;;
13603;SDS011;24578;48.264;11.436;2023-02-28T14:34:02;18.76;;;18.72;;
13603;SDS011;24578;48.264;11.436;2023-02-28T14:37:26;19.20;;;19.20;;
13603;SDS011;24578;48.264;11.436;2023-02-28T14:40:30;18.99;;;18.83;;
13603;SDS011;24578;48.264;11.436;2023-02-28T14:43:35;19.68;;;19.53;;
13603;SDS011;24578;48.264;11.436;2023-02-28T14:46:37;18.99;;;18.90;;
13603;SDS011;24578;48.264;11.436;2023-02-28T14:49:44;19.78;;;19.69;;
13603;SDS011;24578;48.264;11.436;2023-02-28T14:52:45;27.56;;;27.09;;
13603;SDS011;24578;48.264;11.436;2023-02-28T14:55:47;19.59;;;19.55;;
13603;SDS011;24578;48.264;11.436;2023-02-28T14:58:53;18.87;;;18.87;;
13603;SDS011;24578;48.264;11.436;2023-02-28T15:05:29;18.80;;;18.80;;
13603;SDS011;24578;48.264;11.436;2023-02-28T15:08:32;19.36;;;19.36;;
13603;SDS011;24578;48.264;11.436;2023-02-28T15:11:36;19.35;;;19.30;;
13603;SDS011;24578;48.264;11.436;2023-02-28T15:14:38;19.69;;;19.37;;
13603;SDS011;24578;48.264;11.436;2023-02-28T15:17:44;20.61;;;20.28;;
13603;SDS011;24578;48.264;11.436;2023-02-28T15:20:52;19.29;;;19.24;;
13603;SDS011;24578;48.264;11.436;2023-02-28T15:24:06;19.03;;;19.02;;
13603;SDS011;24578;48.264;11.436;2023-02-28T15:27:32;19.32;;;19.20;;
13603;SDS011;24578;48.264;11.436;2023-02-28T15:30:35;19.92;;;19.79;;
13603;SDS011;24578;48.264;11.436;2023-02-28T15:33:36;20.00;;;19.91;;
13603;SDS011;24578;48.264;11.436;2023-02-28T15:36:37;19.63;;;19.47;;
13603;SDS011;24578;48.264;11.436;2023-02-28T15:39:41;19.19;;;19.17;;
13603;SDS011;24578;48.264;11.436;2023-02-28T15:43:06;26.11;;;25.59;;
13603;SDS011;24578;48.264;11.436;2023-02-28T15:46:16;24.00;;;23.79;;
13603;SDS011;24578;48.264;11.436;2023-02-28T15:49:20;19.84;;;19.79;;
13603;SDS011;24578;48.264;11.436;2023-02-28T15:52:41;19.35;;;19.28;;
13603;SDS011;24578;48.264;11.436;2023-02-28T15:55:44;20.37;;;20.31;;
13603;SDS011;24578;48.264;11.436;2023-02-28T15:59:01;20.82;;;20.62;;
13603;SDS011;24578;48.264;11.436;2023-02-28T16:02:21;21.10;;;20.45;;
13603;SDS011;24578;48.264;11.436;2023-02-28T16:05:30;20.61;;;20.46;;
13603;SDS011;24578;48.264;11.436;2023-02-28T16:08:35;27.95;;;27.26;;
13603;SDS011;24578;48.264;11.436;2023-02-28T16:11:37;42.83;;;41.20;;
13603;SDS011;24578;48.264;11.436;2023-02-28T16:14:42;20.69;;;20.26;;
13603;SDS011;24578;48.264;11.436;2023-02-28T16:17:43;21.64;;;21.03;;
13603;SDS011;24578;48.264;11.436;2023-02-28T16:20:44;20.28;;;20.09;;
13603;SDS011;24578;48.264;11.436;2023-02-28T16:23:45;20.10;;;20.06;;
13603;SDS011;24578;48.264;11.436;2023-02-28T16:26:46;21.60;;;21.35;;
13603;SDS011;24578;48.264;11.436;2023-02-28T16:29:49;21.63;;;21.21;;
13603;SDS011;24578;48.264;11.436;2023-02-28T16:32:50;21.78;;;21.77;;
13603;SDS011;24578;48.264;11.436;2023-02-28T16:35:52;21.65;;;21.45;;
13603;SDS011;24578;48.264;11.436;2023-02-28T16:38:53;21.99;;;21.59;;
13603;SDS011;24578;48.264;11.436;2023-02-28T16:41:54;21.45;;;21.36;;
13603;SDS011;24578;48.264;11.436;2023-02-28T16:44:55;36.33;;;35.45;;
13603;SDS011;24578;48.264;11.436;2023-02-28T16:47:56;32.98;;;32.04;;
13603;SDS011;24578;48.264;11.436;2023-02-28T16:50:57;21.73;;;21.37;;
13603;SDS011;24578;48.264;11.436;2023-02-28T16:53:57;67.33;;;64.39;;
13603;SDS011;24578;48.264;11.436;2023-02-28T16:56:58;30.22;;;29.51;;
13603;SDS011;24578;48.264;11.436;2023-02-28T16:59:59;22.31;;;22.02;;
13603;SDS011;24578;48.264;11.436;2023-02-28T17:03:00;22.30;;;22.12;;
13603;SDS011;24578;48.264;11.436;2023-02-28T17:06:02;22.86;;;22.52;;
13603;SDS011;24578;48.264;11.436;2023-02-28T17:09:03;22.89;;;22.41;;
13603;SDS011;24578;48.264;11.436;2023-02-28T17:12:04;23.38;;;23.35;;
13603;SDS011;24578;48.264;11.436;2023-02-28T17:15:05;24.14;;;23.57;;
13603;SDS011;24578;48.264;11.436;2023-02-28T17:18:06;24.18;;;23.92;;
13603;SDS011;24578;48.264;11.436;2023-02-28T17:21:15;25.24;;;24.65;;
13603;SDS011;24578;48.264;11.436;2023-02-28T17:24:16;26.08;;;25.63;;
13603;SDS011;24578;48.264;11.436;2023-02-28T17:27:17;26.59;;;26.53;;
13603;SDS011;24578;48.264;11.436;2023-02-28T17:30:19;29.39;;;29.30;;
13603;SDS011;24578;48.264;11.436;2023-02-28T17:33:22;32.87;;;32.49;;
13603;SDS011;24578;48.264;11.436;2023-02-28T17:36:26;60.95;;;59.47;;
13603;SDS011;24578;48.264;11.436;2023-02-28T17:39:26;47.86;;;46.24;;
13603;SDS011;24578;48.264;11.436;2023-02-28T17:42:27;41.27;;;40.09;;
13603;SDS011;24578;48.264;11.436;2023-02-28T17:45:28;34.11;;;33.56;;
13603;SDS011;24578;48.264;11.436;2023-02-28T17:48:28;32.30;;;31.89;;
13603;SDS011;24578;48.264;11.436;2023-02-28T17:51:29;29.19;;;29.11;;
13603;SDS011;24578;48.264;11.436;2023-02-28T17:54:29;32.65;;;32.23;;
13603;SDS011;24578;48.264;11.436;2023-02-28T17:57:31;31.42;;;30.71;;
13603;SDS011;24578;48.264;11.436;2023-02-28T18:00:31;27.01;;;26.24;;
13603;SDS011;24578;48.264;11.436;2023-02-28T18:03:35;26.71;;;26.30;;
13603;SDS011;24578;48.264;11.436;2023-02-28T18:09:36;28.76;;;28.14;;
13603;SDS011;24578;48.264;11.436;2023-02-28T18:12:37;28.05;;;27.29;;
13603;SDS011;24578;48.264;11.436;2023-02-28T18:15:38;27.27;;;26.42;;
13603;SDS011;24578;48.264;11.436;2023-02-28T18:18:38;26.88;;;26.49;;
13603;SDS011;24578;48.264;11.436;2023-02-28T18:21:40;26.34;;;25.85;;
13603;SDS011;24578;48.264;11.436;2023-02-28T18:24:41;26.88;;;26.10;;
13603;SDS011;24578;48.264;11.436;2023-02-28T18:27:42;26.93;;;26.13;;
13603;SDS011;24578;48.264;11.436;2023-02-28T18:30:53;26.48;;;26.06;;
13603;SDS011;24578;48.264;11.436;2023-02-28T18:33:53;42.49;;;41.04;;
13603;SDS011;24578;48.264;11.436;2023-02-28T18:36:54;28.02;;;27.29;;
13603;SDS011;24578;48.264;11.436;2023-02-28T18:39:56;27.83;;;27.16;;
13603;SDS011;24578;48.264;11.436;2023-02-28T18:42:56;27.16;;;26.53;;
13603;SDS011;24578;48.264;11.436;2023-02-28T18:46:00;26.01;;;25.55;;
13603;SDS011;24578;48.264;11.436;2023-02-28T18:49:10;28.02;;;27.34;;
13603;SDS011;24578;48.264;11.436;2023-02-28T18:52:11;28.24;;;27.39;;
13603;SDS011;24578;48.264;11.436;2023-02-28T18:55:11;27.47;;;26.78;;
13603;SDS011;24578;48.264;11.436;2023-02-28T18:58:17;27.55;;;27.01;;
13603;SDS011;24578;48.264;11.436;2023-02-28T19:04:18;29.83;;;28.84;;
13603;SDS011;24578;48.264;11.436;2023-02-28T19:07:19;30.05;;;29.20;;
13603;SDS011;24578;48.264;11.436;2023-02-28T19:10:20;30.13;;;29.31;;
13603;SDS011;24578;48.264;11.436;2023-02-28T19:13:21;29.38;;;28.50;;
13603;SDS011;24578;48.264;11.436;2023-02-28T19:16:22;28.70;;;28.36;;
13603;SDS011;24578;48.264;11.436;2023-02-28T19:19:23;28.84;;;28.49;;
13603;SDS011;24578;48.264;11.436;2023-02-28T19:22:24;28.62;;;27.93;;
13603;SDS011;24578;48.264;11.436;2023-02-28T19:25:25;33.05;;;32.17;;